sensor_id;sensor_type;location;lat;lon;timestamp;pressure;altitude;pressure_sealevel;temperature;humidity
28310;BME280;15571;50.974;13.936;2022-11-09T00:02:32;99826.72;;;10.02;100.00
28310;BME280;15571;50.974;13.936;2022-11-09T00:05:37;99817.19;;;9.96;100.00
28310;BME280;15571;50.974;13.936;2022-11-09T00:11:57;99819.06;;;9.80;100.00
28310;BME280;15571;50.974;13.936;2022-11-09T00:15:08;99807.84;;;9.72;100.00
28310;BME280;15571;50.974;13.936;2022-11-09T00:18:11;99813.03;;;9.75;100.00
28310;BME280;15571;50.974;13.936;2022-11-09T00:21:19;99820.03;;;9.73;100.00
28310;BME280;15571;50.974;13.936;2022-11-09T00:24:22;99813.94;;;9.73;100.00
28310;BME280;15571;50.974;13.936;2022-11-09T00:27:24;99810.50;;;9.69;100.00
28310;BME280;15571;50.974;13.936;2022-11-09T00:30:27;99816.59;;;9.68;100.00
28310;BME280;15571;50.974;13.936;2022-11-09T00:33:31;99822.63;;;9.73;100.00
28310;BME280;15571;50.974;13.936;2022-11-09T00:36:35;99838.34;;;9.69;100.00
28310;BME280;15571;50.974;13.936;2022-11-09T00:39:38;99841.84;;;9.68;100.00
28310;BME280;15571;50.974;13.936;2022-11-09T00:42:41;99837.50;;;9.68;100.00
28310;BME280;15571;50.974;13.936;2022-11-09T00:45:47;99835.78;;;9.64;100.00
28310;BME280;15571;50.974;13.936;2022-11-09T00:48:50;99843.63;;;9.61;100.00
28310;BME280;15571;50.974;13.936;2022-11-09T00:51:54;99836.75;;;9.50;100.00
28310;BME280;15571;50.974;13.936;2022-11-09T00:54:58;99850.66;;;9.53;100.00
28310;BME280;15571;50.974;13.936;2022-11-09T00:58:03;99838.50;;;9.47;100.00
28310;BME280;15571;50.974;13.936;2022-11-09T01:01:07;99845.47;;;9.49;100.00
28310;BME280;15571;50.974;13.936;2022-11-09T01:04:11;99842.88;;;9.49;100.00
28310;BME280;15571;50.974;13.936;2022-11-09T01:07:15;99848.09;;;9.49;100.00
28310;BME280;15571;50.974;13.936;2022-11-09T01:10:18;99839.41;;;9.44;100.00
28310;BME280;15571;50.974;13.936;2022-11-09T01:13:21;99848.09;;;9.46;100.00
28310;BME280;15571;50.974;13.936;2022-11-09T01:16:23;99847.28;;;9.40;100.00
28310;BME280;15571;50.974;13.936;2022-11-09T01:19:26;99853.38;;;9.40;100.00
28310;BME280;15571;50.974;13.936;2022-11-09T01:22:31;99838.56;;;9.38;100.00
28310;BME280;15571;50.974;13.936;2022-11-09T01:25:34;99845.56;;;9.40;100.00
28310;BME280;15571;50.974;13.936;2022-11-09T01:28:39;99837.75;;;9.31;100.00
28310;BME280;15571;50.974;13.936;2022-11-09T01:31:44;99834.28;;;9.27;100.00
28310;BME280;15571;50.974;13.936;2022-11-09T01:34:48;99837.78;;;9.26;100.00
28310;BME280;15571;50.974;13.936;2022-11-09T01:37:53;99837.78;;;9.25;100.00
28310;BME280;15571;50.974;13.936;2022-11-09T01:40:55;99832.63;;;9.18;100.00
28310;BME280;15571;50.974;13.936;2022-11-09T01:44:06;99848.25;;;9.25;100.00
28310;BME280;15571;50.974;13.936;2022-11-09T01:47:19;99847.38;;;9.24;100.00
28310;BME280;15571;50.974;13.936;2022-11-09T01:50:30;99846.50;;;9.24;100.00
28310;BME280;15571;50.974;13.936;2022-11-09T01:53:40;99845.66;;;9.20;100.00
28310;BME280;15571;50.974;13.936;2022-11-09T01:56:46;99846.53;;;9.21;100.00
28310;BME280;15571;50.974;13.936;2022-11-09T02:00:04;99843.06;;;9.15;100.00
28310;BME280;15571;50.974;13.936;2022-11-09T02:03:17;99831.75;;;9.13;100.00
28310;BME280;15571;50.974;13.936;2022-11-09T02:06:24;99836.13;;;9.11;100.00
28310;BME280;15571;50.974;13.936;2022-11-09T02:09:39;99842.19;;;9.18;100.00
28310;BME280;15571;50.974;13.936;2022-11-09T02:12:45;99840.47;;;9.15;100.00
28310;BME280;15571;50.974;13.936;2022-11-09T02:15:49;99836.13;;;9.13;100.00
28310;BME280;15571;50.974;13.936;2022-11-09T02:18:58;99845.69;;;9.15;100.00
28310;BME280;15571;50.974;13.936;2022-11-09T02:22:33;99847.44;;;9.16;100.00
28310;BME280;15571;50.974;13.936;2022-11-09T02:25:36;99831.78;;;9.15;100.00
28310;BME280;15571;50.974;13.936;2022-11-09T02:28:40;99836.97;;;9.18;100.00
28310;BME280;15571;50.974;13.936;2022-11-09T02:31:46;99838.75;;;9.13;100.00
28310;BME280;15571;50.974;13.936;2022-11-09T02:34:52;99828.28;;;9.16;100.00
28310;BME280;15571;50.974;13.936;2022-11-09T02:37:56;99832.63;;;9.18;100.00
28310;BME280;15571;50.974;13.936;2022-11-09T02:40:59;99824.81;;;9.12;100.00
28310;BME280;15571;50.974;13.936;2022-11-09T02:44:02;99815.22;;;9.11;100.00
28310;BME280;15571;50.974;13.936;2022-11-09T02:47:05;99820.47;;;9.11;100.00
28310;BME280;15571;50.974;13.936;2022-11-09T02:50:09;99815.22;;;9.14;100.00
28310;BME280;15571;50.974;13.936;2022-11-09T02:53:13;99809.16;;;9.14;100.00
28310;BME280;15571;50.974;13.936;2022-11-09T02:56:19;99823.03;;;9.19;100.00
28310;BME280;15571;50.974;13.936;2022-11-09T02:59:22;99816.06;;;9.19;100.00
28310;BME280;15571;50.974;13.936;2022-11-09T03:02:24;99823.03;;;9.19;100.00
28310;BME280;15571;50.974;13.936;2022-11-09T03:05:27;99817.81;;;9.19;100.00
28310;BME280;15571;50.974;13.936;2022-11-09T03:08:32;99810.00;;;9.14;100.00
28310;BME280;15571;50.974;13.936;2022-11-09T03:11:39;99822.19;;;9.18;100.00
28310;BME280;15571;50.974;13.936;2022-11-09T03:14:45;99804.78;;;9.11;100.00
28310;BME280;15571;50.974;13.936;2022-11-09T03:17:49;99806.53;;;9.12;100.00
28310;BME280;15571;50.974;13.936;2022-11-09T03:20:53;99820.44;;;9.14;100.00
28310;BME280;15571;50.974;13.936;2022-11-09T03:24:00;99823.97;;;9.10;100.00
28310;BME280;15571;50.974;13.936;2022-11-09T03:27:06;99817.00;;;9.09;100.00
28310;BME280;15571;50.974;13.936;2022-11-09T03:30:12;99813.53;;;9.10;100.00
28310;BME280;15571;50.974;13.936;2022-11-09T03:33:18;99810.06;;;9.08;100.00
28310;BME280;15571;50.974;13.936;2022-11-09T03:36:21;99808.31;;;9.07;100.00
28310;BME280;15571;50.974;13.936;2022-11-09T03:39:26;99809.19;;;9.06;100.00
28310;BME280;15571;50.974;13.936;2022-11-09T03:42:28;99807.44;;;9.05;100.00
28310;BME280;15571;50.974;13.936;2022-11-09T03:45:31;99813.53;;;9.04;100.00
28310;BME280;15571;50.974;13.936;2022-11-09T03:48:36;99807.47;;;9.00;100.00
28310;BME280;15571;50.974;13.936;2022-11-09T03:51:39;99808.31;;;9.07;100.00
28310;BME280;15571;50.974;13.936;2022-11-09T03:54:43;99818.75;;;9.04;100.00
28310;BME280;15571;50.974;13.936;2022-11-09T03:57:46;99824.06;;;8.96;100.00
28310;BME280;15571;50.974;13.936;2022-11-09T04:00:49;99820.56;;;8.96;100.00
28310;BME280;15571;50.974;13.936;2022-11-09T04:03:52;99825.78;;;8.96;100.00
28310;BME280;15571;50.974;13.936;2022-11-09T04:06:54;99829.25;;;8.95;100.00
28310;BME280;15571;50.974;13.936;2022-11-09T04:09:58;99832.78;;;8.91;100.00
28310;BME280;15571;50.974;13.936;2022-11-09T04:13:04;99836.22;;;8.96;100.00
28310;BME280;15571;50.974;13.936;2022-11-09T04:16:06;99834.47;;;8.98;100.00
28310;BME280;15571;50.974;13.936;2022-11-09T04:19:11;99836.22;;;8.99;100.00
28310;BME280;15571;50.974;13.936;2022-11-09T04:22:14;99831.00;;;8.99;100.00
28310;BME280;15571;50.974;13.936;2022-11-09T04:25:18;99818.81;;;8.92;100.00
28310;BME280;15571;50.974;13.936;2022-11-09T04:28:21;99806.69;;;8.87;100.00
28310;BME280;15571;50.974;13.936;2022-11-09T04:31:23;99804.03;;;8.92;100.00
28310;BME280;15571;50.974;13.936;2022-11-09T04:34:26;99807.53;;;8.91;100.00
28310;BME280;15571;50.974;13.936;2022-11-09T04:37:31;99809.28;;;8.89;100.00
28310;BME280;15571;50.974;13.936;2022-11-09T04:40:35;99826.66;;;8.96;100.00
28310;BME280;15571;50.974;13.936;2022-11-09T04:43:38;99825.78;;;8.96;100.00
28310;BME280;15571;50.974;13.936;2022-11-09T04:46:41;99837.97;;;8.94;100.00
28310;BME280;15571;50.974;13.936;2022-11-09T04:49:43;99831.03;;;8.90;100.00
28310;BME280;15571;50.974;13.936;2022-11-09T04:52:46;99824.94;;;8.87;100.00
28310;BME280;15571;50.974;13.936;2022-11-09T04:55:50;99831.91;;;8.90;100.00
28310;BME280;15571;50.974;13.936;2022-11-09T04:58:53;99829.25;;;8.95;100.00
28310;BME280;15571;50.974;13.936;2022-11-09T05:01:58;99829.25;;;8.95;100.00
28310;BME280;15571;50.974;13.936;2022-11-09T05:05:01;99822.28;;;8.97;100.00
28310;BME280;15571;50.974;13.936;2022-11-09T05:08:08;99823.16;;;8.96;100.00
28310;BME280;15571;50.974;13.936;2022-11-09T05:11:13;99822.31;;;8.95;100.00
28310;BME280;15571;50.974;13.936;2022-11-09T05:14:16;99826.63;;;9.02;100.00
28310;BME280;15571;50.974;13.936;2022-11-09T05:17:20;99827.47;;;9.03;100.00
28310;BME280;15571;50.974;13.936;2022-11-09T05:20:30;99815.34;;;8.96;100.00
28310;BME280;15571;50.974;13.936;2022-11-09T05:23:32;99822.28;;;9.00;100.00
28310;BME280;15571;50.974;13.936;2022-11-09T05:26:54;99828.34;;;9.05;100.00
28310;BME280;15571;50.974;13.936;2022-11-09T05:29:57;99820.56;;;8.99;100.00
28310;BME280;15571;50.974;13.936;2022-11-09T05:33:00;99825.72;;;9.02;100.00
28310;BME280;15571;50.974;13.936;2022-11-09T05:36:07;99825.75;;;9.00;100.00
28310;BME280;15571;50.974;13.936;2022-11-09T05:39:09;99810.13;;;8.96;100.00
28310;BME280;15571;50.974;13.936;2022-11-09T05:42:14;99809.22;;;8.98;100.00
28310;BME280;15571;50.974;13.936;2022-11-09T05:45:18;99818.78;;;8.99;100.00
28310;BME280;15571;50.974;13.936;2022-11-09T05:48:21;99829.22;;;9.04;100.00
28310;BME280;15571;50.974;13.936;2022-11-09T05:51:24;99819.69;;;9.00;100.00
28310;BME280;15571;50.974;13.936;2022-11-09T05:54:26;99821.38;;;9.06;100.00
28310;BME280;15571;50.974;13.936;2022-11-09T05:57:30;99829.19;;;9.07;100.00
28310;BME280;15571;50.974;13.936;2022-11-09T06:00:36;99830.94;;;9.08;100.00
28310;BME280;15571;50.974;13.936;2022-11-09T06:03:39;99822.22;;;9.08;100.00
28310;BME280;15571;50.974;13.936;2022-11-09T06:06:46;99831.78;;;9.09;100.00
28310;BME280;15571;50.974;13.936;2022-11-09T06:09:49;99836.16;;;9.10;100.00
28310;BME280;15571;50.974;13.936;2022-11-09T06:12:52;99829.19;;;9.10;100.00
28310;BME280;15571;50.974;13.936;2022-11-09T06:16:04;99833.53;;;9.10;100.00
28310;BME280;15571;50.974;13.936;2022-11-09T06:19:08;99843.09;;;9.12;100.00
28310;BME280;15571;50.974;13.936;2022-11-09T06:22:12;99843.06;;;9.15;100.00
28310;BME280;15571;50.974;13.936;2022-11-09T06:25:14;99856.16;;;9.14;100.00
28310;BME280;15571;50.974;13.936;2022-11-09T06:28:18;99877.91;;;9.14;100.00
28310;BME280;15571;50.974;13.936;2022-11-09T06:31:21;99890.09;;;9.15;100.00
28310;BME280;15571;50.974;13.936;2022-11-09T06:34:27;99876.16;;;9.19;100.00
28310;BME280;15571;50.974;13.936;2022-11-09T06:37:33;99892.66;;;9.22;100.00
28310;BME280;15571;50.974;13.936;2022-11-09T06:40:36;99903.09;;;9.22;100.00
28310;BME280;15571;50.974;13.936;2022-11-09T06:43:41;99888.34;;;9.17;100.00
28310;BME280;15571;50.974;13.936;2022-11-09T06:46:43;99889.19;;;9.21;100.00
28310;BME280;15571;50.974;13.936;2022-11-09T06:49:47;99891.81;;;9.19;100.00
28310;BME280;15571;50.974;13.936;2022-11-09T06:52:54;99891.78;;;9.23;100.00
28310;BME280;15571;50.974;13.936;2022-11-09T06:55:58;99881.38;;;9.16;100.00
28310;BME280;15571;50.974;13.936;2022-11-09T06:59:02;99890.03;;;9.22;100.00
28310;BME280;15571;50.974;13.936;2022-11-09T07:02:05;99903.06;;;9.26;100.00
28310;BME280;15571;50.974;13.936;2022-11-09T07:05:12;99895.25;;;9.25;100.00
28310;BME280;15571;50.974;13.936;2022-11-09T07:08:17;99899.59;;;9.29;100.00
28310;BME280;15571;50.974;13.936;2022-11-09T07:11:22;99900.47;;;9.25;100.00
28310;BME280;15571;50.974;13.936;2022-11-09T07:14:27;99909.19;;;9.30;100.00
28310;BME280;15571;50.974;13.936;2022-11-09T07:17:30;99916.09;;;9.34;100.00
28310;BME280;15571;50.974;13.936;2022-11-09T07:20:33;99913.47;;;9.35;100.00
28310;BME280;15571;50.974;13.936;2022-11-09T07:23:35;99912.63;;;9.32;100.00
28310;BME280;15571;50.974;13.936;2022-11-09T07:26:38;99929.13;;;9.39;100.00
28310;BME280;15571;50.974;13.936;2022-11-09T07:29:42;99917.78;;;9.41;100.00
28310;BME280;15571;50.974;13.936;2022-11-09T07:32:47;99909.09;;;9.42;100.00
28310;BME280;15571;50.974;13.936;2022-11-09T07:35:50;99916.03;;;9.46;100.00
28310;BME280;15571;50.974;13.936;2022-11-09T07:38:53;99924.75;;;9.48;100.00
28310;BME280;15571;50.974;13.936;2022-11-09T07:41:55;99923.00;;;9.47;100.00
28310;BME280;15571;50.974;13.936;2022-11-09T07:45:02;99933.41;;;9.57;100.00
28310;BME280;15571;50.974;13.936;2022-11-09T07:48:07;99940.38;;;9.55;100.00
28310;BME280;15571;50.974;13.936;2022-11-09T07:51:14;99942.94;;;9.62;100.00
28310;BME280;15571;50.974;13.936;2022-11-09T07:54:17;99922.94;;;9.60;100.00
28310;BME280;15571;50.974;13.936;2022-11-09T07:57:28;99916.84;;;9.58;100.00
28310;BME280;15571;50.974;13.936;2022-11-09T08:00:34;99914.16;;;9.67;100.00
28310;BME280;15571;50.974;13.936;2022-11-09T08:03:51;99920.25;;;9.68;100.00
28310;BME280;15571;50.974;13.936;2022-11-09T08:06:55;99925.47;;;9.71;100.00
28310;BME280;15571;50.974;13.936;2022-11-09T08:09:57;99919.41;;;9.67;100.00
28310;BME280;15571;50.974;13.936;2022-11-09T08:13:02;99922.84;;;9.72;100.00
28310;BME280;15571;50.974;13.936;2022-11-09T08:16:06;99928.91;;;9.77;100.00
28310;BME280;15571;50.974;13.936;2022-11-09T08:19:11;99935.03;;;9.73;100.00
28310;BME280;15571;50.974;13.936;2022-11-09T08:22:14;99936.75;;;9.76;100.00
28310;BME280;15571;50.974;13.936;2022-11-09T08:25:16;99939.38;;;9.74;100.00
28310;BME280;15571;50.974;13.936;2022-11-09T08:28:19;99935.91;;;9.75;100.00
28310;BME280;15571;50.974;13.936;2022-11-09T08:31:23;99935.91;;;9.75;100.00
28310;BME280;15571;50.974;13.936;2022-11-09T08:34:26;99931.53;;;9.74;100.00
28310;BME280;15571;50.974;13.936;2022-11-09T08:37:28;99938.50;;;9.78;100.00
28310;BME280;15571;50.974;13.936;2022-11-09T08:40:34;99948.03;;;9.82;100.00
28310;BME280;15571;50.974;13.936;2022-11-09T08:43:37;99951.50;;;9.85;100.00
28310;BME280;15571;50.974;13.936;2022-11-09T08:46:43;99947.09;;;9.90;100.00
28310;BME280;15571;50.974;13.936;2022-11-09T08:49:46;99938.38;;;9.91;100.00
28310;BME280;15571;50.974;13.936;2022-11-09T08:52:48;99938.38;;;9.91;100.00
28310;BME280;15571;50.974;13.936;2022-11-09T08:55:51;99941.00;;;9.91;100.00
28310;BME280;15571;50.974;13.936;2022-11-09T08:58:56;99941.88;;;9.93;100.00
28310;BME280;15571;50.974;13.936;2022-11-09T09:02:00;99925.28;;;9.95;100.00
28310;BME280;15571;50.974;13.936;2022-11-09T09:05:04;99928.75;;;9.97;100.00
28310;BME280;15571;50.974;13.936;2022-11-09T09:08:07;99923.53;;;9.97;100.00
28310;BME280;15571;50.974;13.936;2022-11-09T09:11:11;99925.25;;;10.02;100.00
28310;BME280;15571;50.974;13.936;2022-11-09T09:14:14;99920.84;;;10.05;100.00
28310;BME280;15571;50.974;13.936;2022-11-09T09:17:20;99916.44;;;10.10;100.00
28310;BME280;15571;50.974;13.936;2022-11-09T09:20:25;99931.25;;;10.15;100.00
28310;BME280;15571;50.974;13.936;2022-11-09T09:23:27;99930.34;;;10.17;100.00
28310;BME280;15571;50.974;13.936;2022-11-09T09:26:30;99938.22;;;10.16;100.00
28310;BME280;15571;50.974;13.936;2022-11-09T09:29:33;99938.19;;;10.19;100.00
28310;BME280;15571;50.974;13.936;2022-11-09T09:32:37;99942.56;;;10.15;100.00
28310;BME280;15571;50.974;13.936;2022-11-09T09:35:41;99932.97;;;10.16;100.00
28310;BME280;15571;50.974;13.936;2022-11-09T09:38:43;99937.28;;;10.21;100.00
28310;BME280;15571;50.974;13.936;2022-11-09T09:41:52;99940.75;;;10.25;100.00
28310;BME280;15571;50.974;13.936;2022-11-09T09:45:00;99946.84;;;10.27;100.00
28310;BME280;15571;50.974;13.936;2022-11-09T09:48:17;99949.41;;;10.32;100.00
28310;BME280;15571;50.974;13.936;2022-11-09T09:51:28;99928.47;;;10.33;100.00
28310;BME280;15571;50.974;13.936;2022-11-09T09:54:34;99932.81;;;10.31;100.00
28310;BME280;15571;50.974;13.936;2022-11-09T09:57:45;99931.94;;;10.32;100.00
28310;BME280;15571;50.974;13.936;2022-11-09T10:00:51;99925.81;;;10.35;100.00
28310;BME280;15571;50.974;13.936;2022-11-09T10:03:57;99921.47;;;10.34;100.00
28310;BME280;15571;50.974;13.936;2022-11-09T10:07:10;99927.59;;;10.34;100.00
28310;BME280;15571;50.974;13.936;2022-11-09T10:10:39;99925.84;;;10.33;100.00
28310;BME280;15571;50.974;13.936;2022-11-09T10:17:22;99908.38;;;10.35;100.00
28310;BME280;15571;50.974;13.936;2022-11-09T10:20:54;99899.66;;;10.36;100.00
28310;BME280;15571;50.974;13.936;2022-11-09T10:24:16;99908.41;;;10.38;100.00
28310;BME280;15571;50.974;13.936;2022-11-09T10:27:26;99908.41;;;10.38;100.00
28310;BME280;15571;50.974;13.936;2022-11-09T10:30:29;99908.41;;;10.38;100.00
28310;BME280;15571;50.974;13.936;2022-11-09T10:33:32;99897.88;;;10.41;100.00
28310;BME280;15571;50.974;13.936;2022-11-09T10:36:42;99888.31;;;10.42;100.00
28310;BME280;15571;50.974;13.936;2022-11-09T10:39:50;99883.91;;;10.42;100.00
28310;BME280;15571;50.974;13.936;2022-11-09T10:43:13;99876.09;;;10.41;100.00
28310;BME280;15571;50.974;13.936;2022-11-09T10:47:02;99869.09;;;10.43;100.00
28310;BME280;15571;50.974;13.936;2022-11-09T10:50:31;99858.63;;;10.41;100.00
28310;BME280;15571;50.974;13.936;2022-11-09T10:54:13;99863.88;;;10.43;100.00
28310;BME280;15571;50.974;13.936;2022-11-09T10:57:34;99869.09;;;10.43;100.00
28310;BME280;15571;50.974;13.936;2022-11-09T11:01:03;99862.94;;;10.47;100.00
28310;BME280;15571;50.974;13.936;2022-11-09T11:04:25;99858.59;;;10.48;100.00
28310;BME280;15571;50.974;13.936;2022-11-09T11:07:46;99855.03;;;10.52;100.00
28310;BME280;15571;50.974;13.936;2022-11-09T11:11:25;99862.88;;;10.55;100.00
28310;BME280;15571;50.974;13.936;2022-11-09T11:14:47;99861.03;;;10.60;100.00
28310;BME280;15571;50.974;13.936;2022-11-09T11:18:15;99856.66;;;10.62;100.00
28310;BME280;15571;50.974;13.936;2022-11-09T11:21:37;99859.28;;;10.62;100.00
28310;BME280;15571;50.974;13.936;2022-11-09T11:24:59;99865.41;;;10.61;100.00
28310;BME280;15571;50.974;13.936;2022-11-09T11:28:28;99867.16;;;10.59;100.00
28310;BME280;15571;50.974;13.936;2022-11-09T11:31:51;99867.13;;;10.62;100.00
28310;BME280;15571;50.974;13.936;2022-11-09T11:35:14;99874.16;;;10.58;100.00
28310;BME280;15571;50.974;13.936;2022-11-09T11:38:39;99870.66;;;10.59;100.00
28310;BME280;15571;50.974;13.936;2022-11-09T11:42:16;99874.16;;;10.58;100.00
28310;BME280;15571;50.974;13.936;2022-11-09T11:45:46;99878.53;;;10.58;100.00
28310;BME280;15571;50.974;13.936;2022-11-09T11:49:40;99869.78;;;10.61;100.00
28310;BME280;15571;50.974;13.936;2022-11-09T11:53:11;99858.47;;;10.57;100.00
28310;BME280;15571;50.974;13.936;2022-11-09T11:56:35;99862.78;;;10.61;100.00
28310;BME280;15571;50.974;13.936;2022-11-09T12:00:09;99866.34;;;10.57;100.00
28310;BME280;15571;50.974;13.936;2022-11-09T18:15:24;100000.09;;;10.15;100.00
28310;BME280;15571;50.974;13.936;2022-11-09T18:18:45;100014.94;;;10.18;100.00
28310;BME280;15571;50.974;13.936;2022-11-09T18:22:08;100012.28;;;10.19;100.00
28310;BME280;15571;50.974;13.936;2022-11-09T18:25:43;100016.63;;;10.23;100.00
28310;BME280;15571;50.974;13.936;2022-11-09T18:29:04;100011.38;;;10.25;100.00
28310;BME280;15571;50.974;13.936;2022-11-09T18:32:32;100008.78;;;10.23;100.00
28310;BME280;15571;50.974;13.936;2022-11-09T18:35:59;100018.34;;;10.26;100.00
28310;BME280;15571;50.974;13.936;2022-11-09T18:39:21;100006.16;;;10.25;100.00
28310;BME280;15571;50.974;13.936;2022-11-09T18:42:44;100004.41;;;10.27;100.00
28310;BME280;15571;50.974;13.936;2022-11-09T18:46:17;100008.72;;;10.30;100.00
28310;BME280;15571;50.974;13.936;2022-11-09T18:49:40;100011.31;;;10.31;100.00
28310;BME280;15571;50.974;13.936;2022-11-09T18:53:01;100008.69;;;10.31;100.00
28310;BME280;15571;50.974;13.936;2022-11-09T18:56:23;100012.22;;;10.32;100.00
28310;BME280;15571;50.974;13.936;2022-11-09T18:59:45;100007.81;;;10.32;100.00
28310;BME280;15571;50.974;13.936;2022-11-09T19:03:07;100011.31;;;10.34;100.00
28310;BME280;15571;50.974;13.936;2022-11-09T19:06:37;100018.28;;;10.35;100.00
28310;BME280;15571;50.974;13.936;2022-11-09T19:09:59;100020.91;;;10.35;100.00
28310;BME280;15571;50.974;13.936;2022-11-09T19:13:20;100025.25;;;10.36;100.00
28310;BME280;15571;50.974;13.936;2022-11-09T19:16:43;100026.16;;;10.38;100.00
28310;BME280;15571;50.974;13.936;2022-11-09T19:20:05;100018.28;;;10.38;100.00
28310;BME280;15571;50.974;13.936;2022-11-09T19:23:28;100032.22;;;10.39;100.00
28310;BME280;15571;50.974;13.936;2022-11-09T19:26:53;100039.19;;;10.41;100.00
28310;BME280;15571;50.974;13.936;2022-11-09T19:30:14;100038.31;;;10.42;100.00
28310;BME280;15571;50.974;13.936;2022-11-09T19:33:36;100032.19;;;10.43;100.00
28310;BME280;15571;50.974;13.936;2022-11-09T19:36:57;100035.69;;;10.42;100.00
28310;BME280;15571;50.974;13.936;2022-11-09T19:40:24;100043.50;;;10.44;100.00
28310;BME280;15571;50.974;13.936;2022-11-09T19:43:47;100041.78;;;10.45;100.00
28310;BME280;15571;50.974;13.936;2022-11-09T19:47:09;100039.16;;;10.45;100.00
28310;BME280;15571;50.974;13.936;2022-11-09T19:50:31;100044.41;;;10.45;100.00
28310;BME280;15571;50.974;13.936;2022-11-09T19:53:54;100040.91;;;10.46;100.00
28310;BME280;15571;50.974;13.936;2022-11-09T19:57:16;100039.16;;;10.45;100.00
28310;BME280;15571;50.974;13.936;2022-11-09T20:00:37;100040.91;;;10.42;100.00
28310;BME280;15571;50.974;13.936;2022-11-09T20:03:59;100041.81;;;10.43;100.00
28310;BME280;15571;50.974;13.936;2022-11-09T20:07:23;100055.75;;;10.43;100.00
28310;BME280;15571;50.974;13.936;2022-11-09T20:10:48;100053.13;;;10.43;100.00
28310;BME280;15571;50.974;13.936;2022-11-09T20:14:12;100056.59;;;10.44;100.00
28310;BME280;15571;50.974;13.936;2022-11-09T20:17:33;100060.09;;;10.45;100.00
28310;BME280;15571;50.974;13.936;2022-11-09T20:20:54;100053.16;;;10.40;100.00
28310;BME280;15571;50.974;13.936;2022-11-09T20:24:15;100054.88;;;10.41;100.00
28310;BME280;15571;50.974;13.936;2022-11-09T20:27:37;100059.25;;;10.39;100.00
28310;BME280;15571;50.974;13.936;2022-11-09T20:30:59;100056.66;;;10.36;100.00
28310;BME280;15571;50.974;13.936;2022-11-09T20:34:21;100059.25;;;10.35;100.00
28310;BME280;15571;50.974;13.936;2022-11-09T20:37:44;100061.88;;;10.33;100.00
28310;BME280;15571;50.974;13.936;2022-11-09T20:41:06;100066.25;;;10.31;100.00
28310;BME280;15571;50.974;13.936;2022-11-09T20:44:39;100063.66;;;10.30;100.00
28310;BME280;15571;50.974;13.936;2022-11-09T20:48:04;100067.13;;;10.30;100.00
28310;BME280;15571;50.974;13.936;2022-11-09T20:51:28;100067.19;;;10.27;100.00
28310;BME280;15571;50.974;13.936;2022-11-09T20:54:50;100071.53;;;10.25;100.00
28310;BME280;15571;50.974;13.936;2022-11-09T20:58:13;100080.28;;;10.24;100.00
28310;BME280;15571;50.974;13.936;2022-11-09T21:01:34;100079.41;;;10.22;100.00
28310;BME280;15571;50.974;13.936;2022-11-09T21:04:56;100078.56;;;10.18;100.00
28310;BME280;15571;50.974;13.936;2022-11-09T21:08:20;100080.31;;;10.19;100.00
28310;BME280;15571;50.974;13.936;2022-11-09T21:11:41;100081.19;;;10.17;100.00
28310;BME280;15571;50.974;13.936;2022-11-09T21:15:16;100084.69;;;10.19;100.00
28310;BME280;15571;50.974;13.936;2022-11-09T21:18:40;100092.53;;;10.16;100.00
28310;BME280;15571;50.974;13.936;2022-11-09T21:22:07;100098.63;;;10.15;100.00
28310;BME280;15571;50.974;13.936;2022-11-09T21:25:28;100097.75;;;10.14;100.00
28310;BME280;15571;50.974;13.936;2022-11-09T21:29:08;100103.03;;;10.11;100.00
28310;BME280;15571;50.974;13.936;2022-11-09T21:32:47;100098.66;;;10.11;100.00
28310;BME280;15571;50.974;13.936;2022-11-09T21:36:09;100109.13;;;10.13;100.00
28310;BME280;15571;50.974;13.936;2022-11-09T21:39:32;100098.66;;;10.11;100.00
28310;BME280;15571;50.974;13.936;2022-11-09T21:42:57;100107.41;;;10.07;100.00
28310;BME280;15571;50.974;13.936;2022-11-09T21:46:17;100112.63;;;10.09;100.00
28310;BME280;15571;50.974;13.936;2022-11-09T21:49:42;100117.88;;;10.07;100.00
28310;BME280;15571;50.974;13.936;2022-11-09T21:53:06;100120.47;;;10.07;100.00
28310;BME280;15571;50.974;13.936;2022-11-09T21:56:29;100122.22;;;10.07;100.00
28310;BME280;15571;50.974;13.936;2022-11-09T21:59:50;100119.63;;;10.05;100.00
28310;BME280;15571;50.974;13.936;2022-11-09T22:03:11;100130.06;;;10.08;100.00
28310;BME280;15571;50.974;13.936;2022-11-09T22:06:33;100125.69;;;10.09;100.00
28310;BME280;15571;50.974;13.936;2022-11-09T22:09:56;100123.09;;;10.07;100.00
28310;BME280;15571;50.974;13.936;2022-11-09T22:13:18;100140.53;;;10.08;100.00
28310;BME280;15571;50.974;13.936;2022-11-09T22:16:59;100142.25;;;10.08;100.00
28310;BME280;15571;50.974;13.936;2022-11-09T22:20:20;100147.50;;;10.06;100.00
28310;BME280;15571;50.974;13.936;2022-11-09T22:24:02;100155.34;;;10.05;100.00
28310;BME280;15571;50.974;13.936;2022-11-09T22:27:24;100161.47;;;10.04;100.00
28310;BME280;15571;50.974;13.936;2022-11-09T22:30:47;100154.50;;;10.01;100.00
28310;BME280;15571;50.974;13.936;2022-11-09T22:34:08;100153.63;;;10.01;100.00
28310;BME280;15571;50.974;13.936;2022-11-09T22:37:29;100156.25;;;10.01;100.00
28310;BME280;15571;50.974;13.936;2022-11-09T22:40:50;100153.66;;;9.99;100.00
28310;BME280;15571;50.974;13.936;2022-11-09T22:44:11;100157.13;;;9.96;100.00
